createdAt,value
2022-11-17T00:01:59.400Z,4.67
2022-11-17T00:04:46.857Z,5.00
2022-11-17T00:07:34.231Z,4.83
2022-11-17T00:10:21.462Z,5.25
2022-11-17T00:13:29.503Z,4.53
2022-11-17T00:16:22.134Z,4.53
2022-11-17T00:19:27.872Z,4.92
2022-11-17T00:22:15.176Z,5.50
2022-11-17T00:25:02.927Z,5.20
2022-11-17T00:27:51.128Z,4.83
2022-11-17T00:30:56.194Z,4.85
2022-11-17T00:34:01.470Z,5.45
2022-11-17T00:36:51.465Z,5.47
2022-11-17T00:39:39.050Z,4.97
2022-11-17T00:42:26.204Z,5.45
2022-11-17T00:45:13.489Z,5.20
2022-11-17T00:48:00.857Z,5.10
2022-11-17T00:50:48.506Z,5.47
2022-11-17T00:53:36.075Z,4.90
2022-11-17T00:56:23.625Z,4.83
2022-11-17T00:59:11.418Z,4.90
2022-11-17T01:01:58.720Z,4.03
2022-11-17T01:04:45.998Z,4.35
2022-11-17T01:07:33.483Z,4.78
2022-11-17T01:10:21.208Z,5.25
2022-11-17T01:13:08.550Z,4.50
2022-11-17T01:15:56.007Z,4.65
2022-11-17T01:18:44.997Z,4.65
2022-11-17T01:21:33.338Z,4.22
2022-11-17T01:24:20.778Z,4.45
2022-11-17T01:27:08.228Z,4.40
2022-11-17T01:29:55.519Z,4.12
2022-11-17T01:32:43.074Z,4.78
2022-11-17T01:35:30.487Z,4.35
2022-11-17T01:38:17.675Z,4.22
2022-11-17T01:41:08.193Z,4.33
2022-11-17T01:44:00.943Z,4.45
2022-11-17T01:46:50.050Z,4.92
2022-11-17T01:49:37.529Z,4.40
2022-11-17T01:52:26.263Z,4.50
2022-11-17T01:55:14.053Z,4.78
2022-11-17T01:58:04.472Z,4.37
2022-11-17T02:00:53.606Z,4.05
2022-11-17T02:03:42.385Z,4.92
2022-11-17T02:06:32.397Z,5.12
2022-11-17T02:09:20.743Z,5.00
2022-11-17T02:12:14.058Z,5.85
2022-11-17T02:15:02.029Z,5.40
2022-11-17T02:17:51.370Z,5.78
2022-11-17T02:20:54.253Z,5.70
2022-11-17T02:24:12.506Z,5.83
2022-11-17T02:27:24.359Z,5.25
2022-11-17T02:30:14.871Z,5.83
2022-11-17T02:33:20.752Z,5.72
2022-11-17T02:36:20.133Z,5.17
2022-11-17T02:39:22.891Z,5.72
2022-11-17T02:42:18.931Z,5.28
2022-11-17T02:45:09.135Z,5.08
2022-11-17T02:47:59.135Z,4.85
2022-11-17T02:50:48.819Z,4.95
2022-11-17T02:53:38.360Z,4.33
2022-11-17T02:56:26.369Z,4.87
2022-11-17T02:59:16.869Z,4.97
2022-11-17T03:02:19.650Z,4.70
2022-11-17T03:05:22.160Z,4.33
2022-11-17T03:08:32.992Z,4.60
2022-11-17T03:11:21.202Z,4.78
2022-11-17T03:14:17.695Z,4.92
2022-11-17T03:17:10.775Z,4.55
2022-11-17T03:20:06.880Z,5.17
2022-11-17T03:23:03.213Z,5.23
2022-11-17T03:25:54.794Z,4.53
2022-11-17T03:28:43.458Z,4.22
2022-11-17T03:31:33.470Z,4.50
2022-11-17T03:34:24.145Z,5.25
2022-11-17T03:37:14.168Z,5.00
2022-11-17T03:40:04.436Z,4.78
2022-11-17T03:42:54.733Z,4.90
2022-11-17T03:45:45.588Z,4.75
2022-11-17T03:48:36.561Z,5.10
2022-11-17T03:51:26.781Z,5.15
2022-11-17T03:54:15.455Z,5.12
2022-11-17T03:57:15.166Z,4.65
2022-11-17T04:00:08.781Z,4.85
2022-11-17T04:02:58.820Z,4.75
2022-11-17T04:05:48.400Z,4.92
2022-11-17T04:08:35.631Z,5.72
2022-11-17T04:11:40.994Z,5.03
2022-11-17T04:14:46.450Z,5.15
2022-11-17T04:17:35.379Z,5.62
2022-11-17T04:20:22.709Z,5.62
2022-11-17T04:23:13.997Z,5.60
2022-11-17T04:26:19.431Z,5.53
2022-11-17T04:29:06.950Z,5.67
2022-11-17T04:31:54.284Z,5.80
2022-11-17T04:34:42.553Z,5.78
2022-11-17T04:37:30.079Z,5.90
2022-11-17T04:40:17.679Z,6.12
2022-11-17T04:43:07.924Z,6.50
2022-11-17T04:46:01.057Z,6.30
2022-11-17T04:48:49.300Z,6.50
2022-11-17T04:51:37.340Z,6.33
2022-11-17T04:54:25.795Z,6.22
2022-11-17T04:57:12.934Z,6.22
2022-11-17T05:00:00.112Z,5.80
2022-11-17T05:02:47.523Z,6.15
2022-11-17T05:05:35.079Z,5.97
2022-11-17T05:08:22.374Z,5.65
2022-11-17T05:11:28.827Z,6.30
2022-11-17T05:14:18.932Z,5.90
2022-11-17T05:17:11.242Z,5.97
2022-11-17T05:19:55.127Z,5.83
2022-11-17T05:23:06.353Z,6.67
2022-11-17T05:25:51.157Z,6.22
2022-11-17T05:28:38.147Z,5.87
2022-11-17T05:31:26.818Z,5.72
2022-11-17T05:34:17.207Z,5.72
2022-11-17T05:37:04.543Z,5.60
2022-11-17T05:39:52.183Z,5.37
2022-11-17T05:42:39.337Z,5.75
2022-11-17T05:45:26.519Z,4.10
2022-11-17T05:48:14.281Z,4.30
2022-11-17T05:51:02.520Z,4.58
2022-11-17T05:53:50.740Z,4.67
2022-11-17T05:57:06.169Z,4.58
2022-11-17T05:59:56.372Z,4.37
2022-11-17T06:02:49.569Z,4.40
2022-11-17T06:05:36.989Z,4.20
2022-11-17T06:08:24.222Z,4.65
2022-11-17T06:11:11.497Z,4.42
2022-11-17T06:13:59.807Z,4.17
2022-11-17T06:16:49.253Z,4.58
2022-11-17T06:19:39.507Z,6.55
2022-11-17T06:22:28.283Z,4.17
2022-11-17T06:25:16.197Z,4.35
2022-11-17T06:28:06.828Z,4.53
2022-11-17T06:30:54.357Z,6.20
2022-11-17T06:33:41.957Z,5.87
2022-11-17T06:36:29.860Z,5.47
2022-11-17T06:39:17.267Z,4.87
2022-11-17T06:42:04.324Z,4.37
2022-11-17T06:44:51.657Z,4.12
2022-11-17T06:47:39.100Z,4.22
2022-11-17T06:50:26.347Z,3.92
2022-11-17T06:53:13.937Z,3.83
2022-11-17T06:56:11.617Z,4.10
2022-11-17T06:58:58.954Z,4.15
2022-11-17T07:01:46.190Z,4.42
2022-11-17T07:04:33.513Z,4.00
2022-11-17T07:07:20.881Z,3.83
2022-11-17T07:10:08.850Z,3.98
2022-11-17T07:12:56.112Z,4.17
2022-11-17T07:15:43.528Z,4.42
2022-11-17T07:18:30.789Z,4.45
2022-11-17T07:21:18.230Z,3.90
2022-11-17T07:24:05.791Z,3.70
2022-11-17T07:26:53.313Z,3.72
2022-11-17T07:29:41.461Z,3.65
2022-11-17T07:32:28.966Z,3.70
2022-11-17T07:35:17.501Z,4.03
2022-11-17T07:38:05.037Z,3.92
2022-11-17T07:40:52.184Z,3.50
2022-11-17T07:43:39.839Z,2.98
2022-11-17T07:46:27.221Z,2.42
2022-11-17T07:49:14.401Z,2.45
2022-11-17T07:52:02.046Z,2.42
2022-11-17T07:54:49.562Z,2.33
2022-11-17T07:57:37.314Z,2.40
2022-11-17T08:00:24.696Z,1.90
2022-11-17T08:03:11.727Z,1.70
2022-11-17T08:06:03.617Z,1.75
2022-11-17T08:08:50.879Z,1.77
2022-11-17T08:11:38.252Z,1.85
2022-11-17T08:14:25.478Z,1.87
2022-11-17T08:17:12.663Z,1.95
2022-11-17T08:20:00.082Z,1.90
2022-11-17T08:22:47.593Z,1.92
2022-11-17T08:25:35.051Z,1.92
2022-11-17T08:28:22.732Z,2.00
2022-11-17T08:31:10.527Z,1.90
2022-11-17T08:33:57.659Z,1.72
2022-11-17T08:36:44.982Z,1.90
2022-11-17T08:39:32.192Z,1.67
2022-11-17T08:42:19.554Z,1.70
2022-11-17T08:45:08.415Z,1.70
2022-11-17T08:47:57.237Z,1.82
2022-11-17T08:50:44.709Z,1.90
2022-11-17T08:53:32.195Z,1.67
2022-11-17T08:56:20.024Z,1.82
2022-11-17T08:59:09.276Z,1.70
2022-11-17T09:01:56.406Z,3.50
2022-11-17T09:04:45.417Z,2.30
2022-11-17T09:07:36.178Z,1.62
2022-11-17T09:10:23.629Z,3.12
2022-11-17T09:13:13.698Z,2.02
2022-11-17T09:16:04.988Z,1.77
2022-11-17T09:18:58.196Z,1.80
2022-11-17T09:21:45.797Z,1.42
2022-11-17T09:24:33.010Z,1.40
2022-11-17T09:27:20.415Z,1.30
2022-11-17T09:30:08.677Z,1.30
2022-11-17T09:32:56.319Z,1.57
2022-11-17T09:35:43.654Z,1.65
2022-11-17T09:38:31.113Z,1.47
2022-11-17T09:41:22.028Z,1.77
2022-11-17T09:44:41.954Z,1.67
2022-11-17T09:47:41.162Z,1.37
2022-11-17T09:50:31.524Z,1.92
2022-11-17T09:53:30.925Z,1.60
2022-11-17T09:56:18.700Z,1.75
2022-11-17T09:59:09.669Z,1.60
2022-11-17T10:01:57.165Z,1.60
2022-11-17T10:04:44.808Z,1.98
2022-11-17T10:07:34.989Z,1.62
2022-11-17T10:10:25.059Z,1.70
2022-11-17T10:13:35.415Z,1.67
2022-11-17T10:16:23.228Z,1.47
2022-11-17T10:19:25.604Z,1.50
2022-11-17T10:22:21.758Z,1.70
2022-11-17T10:25:24.706Z,2.27
2022-11-17T10:28:31.150Z,1.92
2022-11-17T10:31:20.053Z,1.92
2022-11-17T10:34:08.885Z,1.82
2022-11-17T10:36:56.356Z,1.50
2022-11-17T10:39:44.309Z,1.47
2022-11-17T10:42:31.840Z,1.57
2022-11-17T10:45:19.534Z,2.20
2022-11-17T10:48:30.407Z,1.77
2022-11-17T10:51:23.225Z,1.65
2022-11-17T10:54:19.403Z,1.40
2022-11-17T10:57:09.675Z,1.83
2022-11-17T10:59:58.016Z,1.30
2022-11-17T11:02:46.207Z,1.35
2022-11-17T11:05:33.806Z,1.95
2022-11-17T11:08:25.230Z,1.12
2022-11-17T11:11:41.281Z,1.72
2022-11-17T11:14:43.756Z,1.52
2022-11-17T11:17:31.737Z,1.27
2022-11-17T11:20:21.669Z,1.30
2022-11-17T11:23:12.056Z,1.35
2022-11-17T11:26:18.016Z,0.90
2022-11-17T11:29:28.214Z,1.57
2022-11-17T11:32:18.854Z,1.67
2022-11-17T11:35:26.049Z,1.35
2022-11-17T11:38:37.537Z,1.55
2022-11-17T11:42:07.727Z,1.47
2022-11-17T11:44:54.601Z,1.30
2022-11-17T11:48:01.993Z,1.32
2022-11-17T11:50:55.458Z,0.90
2022-11-17T11:54:11.774Z,1.67
2022-11-17T11:56:59.046Z,1.45
2022-11-17T11:59:52.246Z,1.50
2022-11-17T12:02:48.323Z,2.02
2022-11-17T12:05:41.306Z,2.00
2022-11-17T12:08:34.697Z,1.92
2022-11-17T12:11:41.708Z,1.52
2022-11-17T12:14:31.896Z,1.35
2022-11-17T12:17:23.065Z,1.50
2022-11-17T12:20:35.970Z,1.40
2022-11-17T12:23:52.185Z,1.70
2022-11-17T12:26:39.851Z,1.30
2022-11-17T12:29:31.302Z,1.45
2022-11-17T12:32:47.138Z,1.35
2022-11-17T12:35:36.165Z,1.60
2022-11-17T12:38:26.517Z,0.98
2022-11-17T12:41:14.550Z,1.32
2022-11-17T12:44:04.748Z,1.10
2022-11-17T12:46:55.056Z,1.05
2022-11-17T12:49:48.478Z,1.20
2022-11-17T12:53:04.575Z,1.20
2022-11-17T12:56:19.343Z,1.10
2022-11-17T12:59:38.107Z,0.80
2022-11-17T13:02:43.032Z,0.90
2022-11-17T13:05:30.759Z,0.70
2022-11-17T13:08:21.601Z,0.72
2022-11-17T13:11:17.504Z,0.80
2022-11-17T13:14:10.376Z,0.70
2022-11-17T13:16:58.682Z,0.60
2022-11-17T13:19:46.350Z,0.78
2022-11-17T13:22:36.479Z,0.80
2022-11-17T13:25:25.444Z,0.60
2022-11-17T13:28:31.055Z,0.70
2022-11-17T13:31:26.412Z,1.10
2022-11-17T13:34:19.225Z,0.80
2022-11-17T13:37:07.926Z,1.00
2022-11-17T13:40:03.709Z,0.60
2022-11-17T13:42:52.853Z,0.75
2022-11-17T13:45:40.743Z,1.20
2022-11-17T13:48:39.780Z,0.90
2022-11-17T13:51:42.074Z,0.80
2022-11-17T13:54:30.084Z,1.05
2022-11-17T13:57:21.224Z,0.72
2022-11-17T14:00:11.899Z,0.90
2022-11-17T14:03:07.122Z,0.90
2022-11-17T14:05:57.581Z,0.80
2022-11-17T14:08:48.225Z,0.93
2022-11-17T14:11:35.485Z,1.10
2022-11-17T14:14:34.796Z,0.75
2022-11-17T14:17:22.837Z,0.90
2022-11-17T14:20:22.125Z,0.70
2022-11-17T14:23:13.221Z,1.10
2022-11-17T14:26:00.644Z,1.12
2022-11-17T14:28:49.415Z,0.78
2022-11-17T14:31:37.054Z,0.90
2022-11-17T14:34:25.082Z,1.98
2022-11-17T14:37:12.234Z,1.62
2022-11-17T14:40:00.634Z,1.70
2022-11-17T14:42:47.693Z,1.27
2022-11-17T14:45:36.790Z,1.35
2022-11-17T14:48:24.220Z,1.20
2022-11-17T14:51:11.803Z,1.45
2022-11-17T14:53:59.321Z,1.30
2022-11-17T14:56:46.774Z,1.02
2022-11-17T14:59:34.273Z,1.00
2022-11-17T15:02:24.383Z,0.93
2022-11-17T15:05:11.549Z,0.82
2022-11-17T15:07:58.800Z,0.70
2022-11-17T15:10:46.790Z,0.80
2022-11-17T15:13:34.187Z,1.50
2022-11-17T15:16:22.166Z,1.45
2022-11-17T15:19:09.595Z,1.02
2022-11-17T15:21:57.515Z,1.30
2022-11-17T15:24:45.725Z,1.70
2022-11-17T15:27:32.852Z,1.67
2022-11-17T15:30:20.285Z,2.00
2022-11-17T15:33:07.552Z,1.50
2022-11-17T15:36:02.675Z,1.57
2022-11-17T15:38:51.660Z,1.72
2022-11-17T15:41:38.912Z,1.60
2022-11-17T15:44:26.356Z,1.95
2022-11-17T15:47:13.542Z,2.05
2022-11-17T15:50:01.772Z,1.32
2022-11-17T15:53:03.545Z,2.30
2022-11-17T15:55:39.185Z,2.25
2022-11-17T15:58:26.366Z,2.45
2022-11-17T16:01:26.024Z,2.65
2022-11-17T16:04:16.101Z,2.70
2022-11-17T16:07:04.238Z,2.50
2022-11-17T16:09:52.734Z,2.30
2022-11-17T16:12:40.263Z,2.30
2022-11-17T16:15:28.707Z,2.12
2022-11-17T16:18:22.394Z,2.37
2022-11-17T16:21:12.539Z,2.30
2022-11-17T16:24:00.756Z,2.72
2022-11-17T16:26:48.227Z,2.10
2022-11-17T16:29:35.713Z,3.10
2022-11-17T16:32:22.985Z,3.45
2022-11-17T16:35:10.431Z,2.65
2022-11-17T16:37:57.708Z,2.30
2022-11-17T16:40:44.857Z,2.67
2022-11-17T16:43:34.106Z,2.00
2022-11-17T16:46:24.820Z,2.52
2022-11-17T16:49:15.407Z,2.05
2022-11-17T16:52:03.014Z,1.95
2022-11-17T16:54:52.218Z,2.60
2022-11-17T16:57:38.941Z,3.12
2022-11-17T17:00:26.208Z,3.10
2022-11-17T17:03:13.591Z,2.80
2022-11-17T17:06:09.745Z,2.65
2022-11-17T17:09:05.812Z,3.10
2022-11-17T17:11:53.061Z,3.40
2022-11-17T17:14:40.678Z,3.20
2022-11-17T17:17:28.601Z,3.05
2022-11-17T17:20:16.439Z,3.15
2022-11-17T17:23:03.732Z,3.42
2022-11-17T17:26:06.319Z,3.50
2022-11-17T17:28:56.720Z,3.17
2022-11-17T17:31:44.215Z,3.60
2022-11-17T17:34:31.351Z,3.30
2022-11-17T17:37:18.768Z,3.50
2022-11-17T17:40:06.913Z,3.67
2022-11-17T17:42:54.187Z,3.30
2022-11-17T17:45:41.538Z,3.70
2022-11-17T17:48:30.766Z,3.12
2022-11-17T17:51:20.745Z,3.37
2022-11-17T17:54:08.459Z,5.53
2022-11-17T17:56:57.608Z,5.03
2022-11-17T17:59:44.926Z,4.45
2022-11-17T18:02:32.154Z,3.95
2022-11-17T18:05:21.050Z,3.00
2022-11-17T18:08:08.055Z,2.95
2022-11-17T18:11:00.707Z,3.80
2022-11-17T18:13:50.372Z,3.25
2022-11-17T18:16:38.475Z,2.67
2022-11-17T18:19:31.364Z,3.00
2022-11-17T18:22:14.334Z,3.05
2022-11-17T18:25:06.025Z,2.83
2022-11-17T18:27:52.704Z,3.30
2022-11-17T18:30:39.937Z,3.42
2022-11-17T18:33:28.859Z,4.25
2022-11-17T18:36:16.250Z,3.75
2022-11-17T18:39:04.394Z,4.17
2022-11-17T18:41:51.495Z,4.30
2022-11-17T18:44:38.763Z,5.17
2022-11-17T18:47:26.345Z,4.60
2022-11-17T18:50:14.070Z,5.83
2022-11-17T18:53:01.409Z,4.08
2022-11-17T18:55:48.870Z,5.37
2022-11-17T18:58:36.650Z,5.70
2022-11-17T19:01:27.827Z,5.05
2022-11-17T19:04:16.626Z,4.95
2022-11-17T19:07:04.221Z,4.92
2022-11-17T19:09:53.142Z,8.03
2022-11-17T19:12:40.566Z,8.90
2022-11-17T19:15:28.168Z,8.23
2022-11-17T19:18:16.792Z,8.40
2022-11-17T19:21:13.061Z,6.83
2022-11-17T19:24:02.877Z,7.97
2022-11-17T19:26:51.314Z,5.97
2022-11-17T19:29:40.124Z,5.00
2022-11-17T19:32:27.713Z,6.62
2022-11-17T19:35:19.814Z,6.83
2022-11-17T19:38:04.255Z,8.88
2022-11-17T19:40:54.959Z,8.93
2022-11-17T19:43:45.482Z,9.55
2022-11-17T19:46:34.414Z,10.48
2022-11-17T19:49:24.318Z,10.03
2022-11-17T19:52:11.738Z,10.53
2022-11-17T19:54:59.329Z,10.93
2022-11-17T19:57:46.537Z,10.65
2022-11-17T20:00:34.311Z,9.78
2022-11-17T20:03:24.487Z,10.32
2022-11-17T20:06:14.195Z,11.43
2022-11-17T20:09:01.481Z,10.05
2022-11-17T20:11:48.942Z,9.78
2022-11-17T20:14:36.569Z,9.88
2022-11-17T20:17:24.032Z,9.05
2022-11-17T20:20:11.913Z,10.72
2022-11-17T20:22:59.384Z,12.43
2022-11-17T20:25:47.012Z,12.33
2022-11-17T20:28:36.105Z,14.73
2022-11-17T20:31:29.265Z,12.90
2022-11-17T20:34:19.532Z,12.45
2022-11-17T20:37:06.773Z,12.43
2022-11-17T20:39:54.378Z,9.43
2022-11-17T20:42:41.596Z,9.35
2022-11-17T20:45:28.871Z,8.48
2022-11-17T20:48:16.421Z,12.00
2022-11-17T20:51:06.799Z,10.90
2022-11-17T20:53:54.277Z,12.10
2022-11-17T20:56:42.647Z,12.07
2022-11-17T20:59:31.337Z,7.78
2022-11-17T21:02:18.795Z,9.38
2022-11-17T21:05:07.296Z,8.40
2022-11-17T21:07:54.567Z,9.25
2022-11-17T21:10:42.203Z,10.10
2022-11-17T21:13:30.945Z,10.65
2022-11-17T21:16:18.428Z,9.78
2022-11-17T21:19:06.339Z,8.88
2022-11-17T21:21:54.255Z,9.75
2022-11-17T21:24:41.938Z,9.73
2022-11-17T21:27:29.760Z,10.40
2022-11-17T21:30:17.106Z,10.15
2022-11-17T21:33:04.416Z,9.28
2022-11-17T21:35:52.201Z,10.18
2022-11-17T21:38:39.676Z,10.08
2022-11-17T21:41:29.781Z,10.53
2022-11-17T21:44:17.101Z,10.55
2022-11-17T21:47:04.486Z,9.58
2022-11-17T21:49:54.693Z,9.98
2022-11-17T21:52:41.910Z,9.68
2022-11-17T21:55:29.086Z,9.45
2022-11-17T21:58:16.526Z,8.80
2022-11-17T22:01:09.410Z,8.98
2022-11-17T22:03:56.536Z,8.05
2022-11-17T22:06:44.023Z,8.73
2022-11-17T22:09:31.578Z,7.97
2022-11-17T22:12:18.750Z,8.60
2022-11-17T22:15:11.548Z,9.05
2022-11-17T22:17:55.121Z,9.43
2022-11-17T22:20:42.469Z,9.00
2022-11-17T22:23:30.437Z,8.68
2022-11-17T22:26:17.909Z,8.95
2022-11-17T22:29:07.210Z,7.33
2022-11-17T22:31:54.401Z,7.58
2022-11-17T22:34:41.908Z,7.30
2022-11-17T22:37:29.405Z,6.80
2022-11-17T22:40:16.828Z,7.67
2022-11-17T22:43:04.701Z,7.40
2022-11-17T22:45:55.397Z,7.12
2022-11-17T22:48:42.940Z,6.87
2022-11-17T22:51:48.251Z,6.37
2022-11-17T22:54:36.653Z,6.85
2022-11-17T22:57:24.146Z,6.80
2022-11-17T23:00:12.122Z,6.78
2022-11-17T23:02:59.697Z,7.08
2022-11-17T23:05:46.840Z,6.72
2022-11-17T23:08:34.288Z,6.67
2022-11-17T23:11:37.155Z,7.50
2022-11-17T23:14:14.811Z,7.55
2022-11-17T23:17:02.352Z,7.92
2022-11-17T23:19:51.210Z,7.87
2022-11-17T23:22:38.757Z,7.28
2022-11-17T23:25:26.162Z,8.55
2022-11-17T23:28:13.668Z,7.25
2022-11-17T23:31:01.944Z,6.45
2022-11-17T23:33:49.681Z,6.40
2022-11-17T23:36:36.827Z,6.20
2022-11-17T23:39:24.271Z,6.28
2022-11-17T23:42:11.725Z,6.45
2022-11-17T23:44:59.200Z,6.35
2022-11-17T23:47:46.795Z,6.55
2022-11-17T23:50:33.992Z,6.72
2022-11-17T23:53:24.717Z,6.50
2022-11-17T23:56:12.257Z,6.47
2022-11-17T23:58:59.486Z,6.30
